KRDM/RDM METAR and TAF weather

Enter ICAO airport designator
Station Type Date Time Source
KRDM METAR 2019/05/21 19:56 UTC NOAA

KRDM 211956Z 07003KT 10SM BKN040 BKN048 OVC080 13/02 A2966 RMK AO2 SLP041 T01280022


Station Type Date Time Source
KRDM Decoded METAR 2019/05/21 19:56 UTC NOAA

REDMOND ROBERTS FIELD, OR, United States (KRDM) 44-15N 121-08W
May 21, 2019 - 03:56 PM EDT / 2019.05.21 1956 UTC
Wind: from the ENE (070 degrees) at 3 MPH (3 KT):0
Visibility: 10 mile(s):0
Sky conditions: overcast
Temperature: 55.0 F (12.8 C)
Dew Point: 36.0 F (2.2 C)
Relative Humidity: 48%
Pressure (altimeter): 29.66 in. Hg (1004 hPa)
ob: KRDM 211956Z 07003KT 10SM BKN040 BKN048 OVC080 13/02 A2966 RMK AO2 SLP041 T01280022
cycle: 20

Station Type Date Time Source
KRDM TAF 2019/05/21 21:42 UTC NOAA

TAF KRDM 212038Z 2121/2218 34009KT P6SM VCTS SCT035 SCT050CB BKN060
TEMPO 2121/2201 6SM -SHRA BKN035
FM220300 32008KT P6SM VCSH SCT030 BKN040
FM221000 28007KT P6SM SCT050 BKN070
FM221700 32015G23KT P6SM SCT050 BKN070

Example: see airport list